Time;durP1;ratioP1;P1;durP2;ratioP2;P2;SDS_P1;SDS_P2;PMS_P1;PMS_P2;Temp;Humidity;BMP_temperature;BMP_pressure;BME280_temperature;BME280_humidity;BME280_pressure;Samples;Min_cycle;Max_cycle;Signal;HPM_P1;HPM_P2
2022/02/25 00:00:09;;;;;;;0.20;0.10;;;;;;;4.74;90.49;100529.91;4993155;28;20887;-53
2022/02/25 00:02:36;;;;;;;0.20;0.13;;;;;;;4.68;91.04;100537.81;4992717;28;20465;-53
2022/02/25 00:05:03;;;;;;;0.20;0.10;;;;;;;4.69;89.97;100547.47;4992960;28;20464;-53
2022/02/25 00:07:30;;;;;;;0.20;0.10;;;;;;;4.72;90.34;100545.72;4992856;28;20476;-53
2022/02/25 00:09:56;;;;;;;0.30;0.20;;;;;;;4.92;90.42;100543.03;4993198;28;20454;-53
2022/02/25 00:12:24;;;;;;;0.20;0.10;;;;;;;4.77;89.95;100540.44;4993044;28;20516;-53
2022/02/25 00:14:51;;;;;;;0.20;0.20;;;;;;;4.66;89.54;100550.09;4993101;28;20441;-52
2022/02/25 00:17:17;;;;;;;0.20;0.10;;;;;;;4.60;90.04;100552.72;4992092;28;20531;-52
2022/02/25 00:19:44;;;;;;;0.20;0.10;;;;;;;4.63;90.04;100547.47;4992766;28;20458;-53
2022/02/25 00:22:11;;;;;;;0.20;0.20;;;;;;;4.69;89.38;100545.72;4992957;28;20834;-53
2022/02/25 00:24:37;;;;;;;0.20;0.10;;;;;;;4.71;89.65;100535.19;4992898;28;20922;-53
2022/02/25 00:27:04;;;;;;;0.20;0.20;;;;;;;4.68;89.41;100551.88;4991229;28;20528;-53
2022/02/25 00:29:31;;;;;;;0.20;0.10;;;;;;;4.82;88.40;100557.13;4992585;28;20507;-53
2022/02/25 00:31:57;;;;;;;0.20;0.10;;;;;;;4.61;88.27;100554.50;4992657;28;20453;-53
2022/02/25 00:34:24;;;;;;;0.20;0.10;;;;;;;4.60;88.24;100564.16;4992984;28;20456;-53
2022/02/25 00:36:51;;;;;;;0.20;0.10;;;;;;;4.56;88.43;100567.66;4992398;28;20449;-53
2022/02/25 00:39:17;;;;;;;0.20;0.10;;;;;;;4.58;88.32;100578.19;4992543;28;20475;-53
2022/02/25 00:41:44;;;;;;;0.20;0.10;;;;;;;4.51;88.13;100584.31;4992660;28;20966;-53
2022/02/25 00:44:10;;;;;;;0.20;0.20;;;;;;;4.55;87.76;100588.72;4992564;28;21022;-52
2022/02/25 00:46:37;;;;;;;0.20;0.10;;;;;;;4.54;88.68;100586.97;4992475;28;21022;-53
2022/02/25 00:49:04;;;;;;;0.20;0.10;;;;;;;4.65;88.49;100591.34;4992030;28;20548;-53
2022/02/25 00:51:30;;;;;;;0.20;0.10;;;;;;;4.66;88.47;100594.84;4992610;28;20457;-53
2022/02/25 00:53:57;;;;;;;0.20;0.10;;;;;;;4.52;88.80;100602.72;4992576;28;20504;-53
2022/02/25 00:56:24;;;;;;;0.20;0.10;;;;;;;4.67;89.03;100602.78;4997808;28;20475;-53
2022/02/25 00:58:54;;;;;;;0.20;0.20;;;;;;;4.68;88.49;100601.91;5000008;28;20477;-53
2022/02/25 01:01:21;;;;;;;0.20;0.20;;;;;;;4.54;88.59;100608.03;4992363;28;20445;-53
2022/02/25 01:03:48;;;;;;;0.20;0.10;;;;;;;4.40;89.34;100619.41;4992643;28;20497;-51
2022/02/25 01:06:15;;;;;;;0.20;0.10;;;;;;;4.41;88.83;100618.53;4979793;28;20807;-53
2022/02/25 01:08:41;;;;;;;0.20;0.10;;;;;;;4.41;90.13;100625.56;4991985;28;20562;-52
2022/02/25 01:11:08;;;;;;;0.20;0.20;;;;;;;4.49;89.49;100618.53;4992552;28;20881;-53
2022/02/25 01:13:34;;;;;;;0.20;0.10;;;;;;;4.43;89.80;100623.78;4992350;28;20939;-53
2022/02/25 01:16:01;;;;;;;0.20;0.10;;;;;;;4.64;89.20;100623.81;4992199;28;21306;-53
2022/02/25 01:18:28;;;;;;;0.20;0.10;;;;;;;4.63;89.07;100629.06;4991891;28;20855;-53
2022/02/25 01:20:54;;;;;;;0.20;0.20;;;;;;;4.52;88.91;100639.59;4992392;28;20457;-53
2022/02/25 01:23:21;;;;;;;0.20;0.10;;;;;;;4.42;89.80;100638.72;4992429;28;20521;-53
2022/02/25 01:25:47;;;;;;;0.20;0.10;;;;;;;4.52;89.72;100641.34;4979352;28;20457;-53
2022/02/25 01:28:14;;;;;;;0.20;0.10;;;;;;;4.35;90.16;100638.69;4991053;28;20505;-53
2022/02/25 01:30:41;;;;;;;0.20;0.17;;;;;;;4.62;89.88;100648.38;4994229;28;20508;-53
2022/02/25 01:33:07;;;;;;;0.20;0.10;;;;;;;4.55;89.61;100644.00;4996074;28;20540;-53
2022/02/25 01:35:35;;;;;;;0.20;0.10;;;;;;;4.47;89.82;100647.47;4982820;28;20457;-53
2022/02/25 01:38:02;;;;;;;0.20;0.20;;;;;;;4.41;90.10;100647.47;4995237;28;21005;-53
2022/02/25 01:40:29;;;;;;;0.20;0.10;;;;;;;4.45;91.40;100654.50;4995495;28;20461;-53
2022/02/25 01:42:56;;;;;;;0.20;0.10;;;;;;;4.39;90.98;100654.50;4995195;28;20462;-53
2022/02/25 01:45:22;;;;;;;0.20;0.17;;;;;;;4.38;90.79;100657.09;4995611;28;20946;-53
2022/02/25 01:47:49;;;;;;;0.20;0.20;;;;;;;4.37;91.41;100661.50;4995370;28;20492;-54
2022/02/25 01:50:16;;;;;;;0.20;0.10;;;;;;;4.37;91.50;100653.59;4995093;28;20990;-53
2022/02/25 01:53:08;;;;;;;0.20;0.10;;;;;;;4.28;92.48;100660.59;4995481;28;20825;-53
2022/02/25 01:55:37;;;;;;;0.20;0.10;;;;;;;4.29;92.42;100660.59;4995706;28;20445;-53
2022/02/25 01:58:05;;;;;;;0.20;0.10;;;;;;;4.31;92.84;100656.22;5008502;28;20466;-52
2022/02/25 02:00:33;;;;;;;0.20;0.13;;;;;;;4.21;92.27;100662.31;4995142;28;20883;-53
2022/02/25 02:03:01;;;;;;;0.20;0.10;;;;;;;4.31;92.83;100669.38;4995181;28;20512;-53
2022/02/25 02:05:28;;;;;;;0.20;0.10;;;;;;;4.30;92.40;100666.75;4995185;28;20969;-54
2022/02/25 02:07:54;;;;;;;0.20;0.10;;;;;;;4.21;93.31;100674.59;4982180;28;20607;-53
2022/02/25 02:10:21;;;;;;;0.30;0.30;;;;;;;4.10;93.37;100682.44;4995113;28;20495;-54
2022/02/25 02:12:47;;;;;;;0.20;0.20;;;;;;;3.99;93.95;100681.53;4995307;28;20876;-53
2022/02/25 02:15:14;;;;;;;0.20;0.20;;;;;;;3.97;94.02;100685.91;4995038;28;20445;-52
2022/02/25 02:17:41;;;;;;;0.50;0.50;;;;;;;3.91;94.84;100680.63;4995066;28;20528;-53
2022/02/25 02:20:08;;;;;;;0.20;0.10;;;;;;;4.04;93.85;100688.56;4994624;28;20504;-53
2022/02/25 02:22:36;;;;;;;0.20;0.20;;;;;;;3.72;95.32;100684.91;4994869;28;20453;-53
2022/02/25 02:25:03;;;;;;;0.20;0.10;;;;;;;3.63;96.12;100685.72;4994648;28;20497;-53
2022/02/25 02:30:17;;;;;;;0.20;0.10;;;;;;;4.01;95.35;100692.94;4994478;28;21044;-53
2022/02/25 02:32:44;;;;;;;0.20;0.20;;;;;;;4.04;95.24;100696.47;4994319;28;20453;-53
2022/02/25 02:35:10;;;;;;;0.20;0.10;;;;;;;4.01;94.71;100698.22;4994864;28;20449;-53
2022/02/25 02:37:37;;;;;;;0.20;0.10;;;;;;;3.97;94.40;100696.41;4994745;28;20527;-53
2022/02/25 02:40:05;;;;;;;0.20;0.10;;;;;;;4.08;94.60;100697.34;4994043;28;20877;-53
2022/02/25 02:42:32;;;;;;;0.20;0.20;;;;;;;4.00;95.05;100699.09;4994132;28;20457;-53
2022/02/25 02:45:00;;;;;;;0.20;0.10;;;;;;;4.01;94.67;100700.84;4994449;28;20489;-53
2022/02/25 02:47:27;;;;;;;0.20;0.10;;;;;;;4.09;95.03;100712.25;4994106;28;20477;-53
2022/02/25 02:49:53;;;;;;;0.20;0.10;;;;;;;4.12;95.15;100702.66;4994319;28;20523;-53
2022/02/25 02:52:21;;;;;;;0.20;0.10;;;;;;;4.27;95.23;100704.47;4994348;28;20947;-53
2022/02/25 02:54:47;;;;;;;0.20;0.10;;;;;;;4.27;94.24;100707.09;4994206;28;20985;-53
2022/02/25 02:57:14;;;;;;;0.20;0.10;;;;;;;4.13;94.85;100708.78;4994267;28;20540;-53
2022/02/25 02:59:41;;;;;;;0.20;0.10;;;;;;;4.26;94.50;100712.34;4993820;28;20457;-53
2022/02/25 03:02:07;;;;;;;0.20;0.10;;;;;;;4.26;94.09;100713.22;4993959;28;20458;-53
2022/02/25 03:04:34;;;;;;;0.20;0.13;;;;;;;4.25;94.88;100711.47;4994068;28;20532;-53
2022/02/25 03:07:02;;;;;;;0.20;0.10;;;;;;;4.27;94.12;100720.25;4994196;28;20477;-54
2022/02/25 03:09:29;;;;;;;0.20;0.10;;;;;;;4.28;95.12;100722.00;4993676;28;20986;-53
2022/02/25 03:11:55;;;;;;;0.20;0.20;;;;;;;4.29;94.49;100721.13;4993933;28;20461;-53
2022/02/25 03:14:22;;;;;;;0.30;0.20;;;;;;;4.33;94.97;100722.88;4993867;28;20477;-54
2022/02/25 03:16:49;;;;;;;0.20;0.13;;;;;;;4.31;94.46;100724.63;4993597;28;20955;-54
2022/02/25 03:19:15;;;;;;;0.20;0.10;;;;;;;4.32;94.85;100729.03;4982235;28;20541;-54
2022/02/25 03:21:42;;;;;;;0.20;0.10;;;;;;;4.28;95.55;100723.75;4993632;28;20509;-54
2022/02/25 03:24:11;;;;;;;0.20;0.10;;;;;;;4.27;94.67;100729.88;4993549;28;20509;-54
2022/02/25 03:26:38;;;;;;;0.20;0.10;;;;;;;4.38;94.71;100738.69;4993611;28;20953;-54
2022/02/25 03:29:05;;;;;;;0.20;0.10;;;;;;;4.37;95.41;100731.66;4993084;28;20535;-54
2022/02/25 03:31:31;;;;;;;0.20;0.10;;;;;;;4.37;94.87;100736.94;4993711;28;20959;-54
2022/02/25 03:33:58;;;;;;;0.20;0.10;;;;;;;4.30;95.01;100738.66;4993643;28;21373;-54
2022/02/25 03:36:24;;;;;;;0.20;0.10;;;;;;;4.42;95.21;100745.72;4993584;28;20735;-53
2022/02/25 03:38:51;;;;;;;0.20;0.10;;;;;;;4.42;95.61;100748.38;4993244;28;20838;-54
2022/02/25 03:41:18;;;;;;;0.20;0.10;;;;;;;4.47;94.96;100751.88;4993390;28;20822;-54
2022/02/25 03:43:45;;;;;;;0.20;0.10;;;;;;;4.46;95.48;100758.03;4993469;28;21072;-54
2022/02/25 03:46:12;;;;;;;0.20;0.10;;;;;;;4.50;95.12;100751.88;4993329;28;20883;-53
2022/02/25 03:48:38;;;;;;;0.20;0.10;;;;;;;4.40;95.35;100751.00;4992704;28;20540;-54
2022/02/25 03:51:05;;;;;;;0.20;0.10;;;;;;;4.43;95.49;100764.16;4993814;28;20488;-54
2022/02/25 03:53:32;;;;;;;0.20;0.20;;;;;;;4.46;96.12;100756.28;4993085;28;20449;-54
2022/02/25 03:55:58;;;;;;;0.20;0.10;;;;;;;4.46;95.63;100758.03;4994866;28;20504;-53
2022/02/25 03:58:25;;;;;;;0.20;0.10;;;;;;;4.43;96.33;100755.38;5003920;28;20497;-54
2022/02/25 04:00:52;;;;;;;0.20;0.10;;;;;;;4.49;96.12;100765.91;4993297;28;20866;-54
2022/02/25 04:03:18;;;;;;;0.20;0.10;;;;;;;4.39;96.34;100756.25;4993265;28;20507;-53
2022/02/25 04:05:45;;;;;;;0.20;0.10;;;;;;;4.47;96.14;100758.03;4993007;28;20568;-54
2022/02/25 04:08:12;;;;;;;0.20;0.10;;;;;;;4.34;95.52;100755.34;4992677;28;20477;-54
2022/02/25 04:10:38;;;;;;;0.20;0.10;;;;;;;4.27;96.16;100749.19;4991766;28;20461;-52
2022/02/25 04:13:05;;;;;;;0.20;0.10;;;;;;;4.14;96.06;100748.25;4993243;28;20453;-53
2022/02/25 04:15:33;;;;;;;0.20;0.13;;;;;;;4.11;96.48;100745.59;4993068;28;20446;-53
2022/02/25 04:18:00;;;;;;;0.20;0.10;;;;;;;4.07;96.74;100742.94;4993036;28;20524;-53
2022/02/25 04:20:27;;;;;;;0.20;0.10;;;;;;;4.05;97.26;100742.94;4992269;28;21017;-52
2022/02/25 04:22:54;;;;;;;0.20;0.10;;;;;;;4.02;96.66;100752.56;4992830;28;20502;-53
2022/02/25 04:25:21;;;;;;;0.20;0.10;;;;;;;3.95;97.22;100748.13;4992554;28;20901;-53
2022/02/25 04:27:47;;;;;;;0.20;0.10;;;;;;;4.01;97.42;100748.19;5024258;28;20466;-53
2022/02/25 04:30:19;;;;;;;0.20;0.10;;;;;;;3.97;97.68;100752.50;4992600;28;20550;-53
2022/02/25 04:32:46;;;;;;;0.20;0.10;;;;;;;4.04;96.71;100751.69;4992787;28;20500;-52
2022/02/25 04:35:14;;;;;;;0.20;0.10;;;;;;;3.91;97.10;100756.88;4992946;28;20449;-54
2022/02/25 04:37:41;;;;;;;0.20;0.10;;;;;;;3.93;97.18;100748.13;4992681;28;20477;-54
2022/02/25 04:40:09;;;;;;;0.20;0.10;;;;;;;3.93;97.30;100750.75;4992328;28;20866;-53
2022/02/25 04:42:36;;;;;;;0.20;0.10;;;;;;;3.85;97.14;100755.97;4992990;28;20457;-53
2022/02/25 04:45:04;;;;;;;0.20;0.10;;;;;;;3.88;97.79;100743.72;4992797;28;20493;-53
2022/02/25 04:47:31;;;;;;;0.20;0.10;;;;;;;3.85;97.52;100757.72;4993257;28;20469;-51
2022/02/25 04:49:58;;;;;;;0.20;0.10;;;;;;;3.87;97.06;100758.63;4992399;28;20457;-50
2022/02/25 04:52:24;;;;;;;0.20;0.10;;;;;;;3.74;97.90;100765.53;4992424;28;20457;-51
2022/02/25 04:54:51;;;;;;;0.20;0.10;;;;;;;3.64;98.12;100755.81;4992504;28;20870;-50
2022/02/25 04:57:17;;;;;;;0.20;0.10;;;;;;;3.76;97.72;100755.91;5000388;28;20496;-50
2022/02/25 04:59:46;;;;;;;0.20;0.10;;;;;;;3.81;97.89;100754.19;4992825;28;20462;-50
2022/02/25 05:02:13;;;;;;;0.20;0.10;;;;;;;3.68;98.89;100754.97;4992118;28;20454;-50
2022/02/25 05:04:39;;;;;;;0.20;0.13;;;;;;;3.66;98.75;100756.72;4993175;28;20560;-50
2022/02/25 05:07:06;;;;;;;0.20;0.10;;;;;;;3.69;98.11;100764.63;4996257;28;20524;-50
2022/02/25 05:09:32;;;;;;;0.20;0.10;;;;;;;3.73;97.86;100761.16;4996369;28;20453;-50
2022/02/25 05:11:59;;;;;;;0.20;0.10;;;;;;;3.61;97.99;100768.97;4996406;28;20449;-51
2022/02/25 05:20:23;;;;;;;0.20;0.20;;;;;;;3.61;98.20;100774.22;4996489;28;20481;-50
2022/02/25 05:22:51;;;;;;;0.20;0.10;;;;;;;3.49;98.72;100777.63;4995739;28;20449;-50
2022/02/25 05:25:18;;;;;;;0.30;0.20;;;;;;;3.46;98.82;100780.22;4995881;28;20497;-50
2022/02/25 05:27:45;;;;;;;0.20;0.10;;;;;;;3.51;98.07;100780.25;4995558;28;20469;-51
2022/02/25 05:30:15;;;;;;;0.20;0.10;;;;;;;3.55;97.90;100780.28;4995757;28;20876;-50
2022/02/25 05:32:46;;;;;;;0.20;0.10;;;;;;;3.45;98.09;100781.09;4996184;28;20461;-50
2022/02/25 05:35:14;;;;;;;0.20;0.10;;;;;;;3.46;98.31;100781.97;4996003;28;20877;-50
2022/02/25 05:37:42;;;;;;;0.20;0.10;;;;;;;3.49;97.74;100777.63;4995862;28;20911;-50
2022/02/25 05:40:11;;;;;;;0.20;0.10;;;;;;;3.50;97.98;100783.75;4995617;28;20457;-51
2022/02/25 05:42:39;;;;;;;0.20;0.10;;;;;;;3.44;98.13;100788.97;4995673;28;20485;-50
2022/02/25 05:45:07;;;;;;;0.20;0.10;;;;;;;3.43;98.31;100787.22;4995561;28;20492;-51
2022/02/25 05:47:34;;;;;;;0.20;0.10;;;;;;;3.43;98.31;100795.09;4995875;28;20860;-50
2022/02/25 05:50:04;;;;;;;0.20;0.10;;;;;;;3.52;97.77;100795.16;4995065;28;20457;-52
2022/02/25 05:52:32;;;;;;;0.20;0.10;;;;;;;3.47;98.15;100797.75;4995450;28;20529;-50
2022/02/25 05:54:58;;;;;;;0.20;0.10;;;;;;;3.46;98.19;100808.25;4995291;28;20445;-50
2022/02/25 05:57:25;;;;;;;0.20;0.10;;;;;;;3.45;98.52;100804.75;5008499;28;20476;-51
2022/02/25 05:59:53;;;;;;;0.20;0.10;;;;;;;3.48;97.74;100802.13;4995243;28;20457;-50
2022/02/25 06:02:21;;;;;;;0.20;0.10;;;;;;;3.50;98.11;100807.41;4995337;28;20804;-51
2022/02/25 06:04:49;;;;;;;0.30;0.20;;;;;;;3.53;98.31;100812.69;4995283;28;20489;-50
2022/02/25 06:07:17;;;;;;;0.20;0.10;;;;;;;3.34;98.78;100810.78;4995096;28;20998;-51
2022/02/25 06:09:44;;;;;;;0.20;0.10;;;;;;;3.33;99.54;100804.63;4995380;28;20516;-50
2022/02/25 06:12:10;;;;;;;0.20;0.10;;;;;;;3.27;99.05;100804.56;4995438;28;20472;-50
2022/02/25 06:14:37;;;;;;;0.20;0.10;;;;;;;3.34;99.25;100816.03;4994998;28;20454;-50
2022/02/25 06:17:03;;;;;;;0.20;0.13;;;;;;;3.31;99.55;100816.00;4994727;28;20523;-50
2022/02/25 06:19:30;;;;;;;0.20;0.10;;;;;;;3.19;99.92;100809.75;4995310;28;20453;-50
2022/02/25 06:22:00;;;;;;;0.20;0.10;;;;;;;3.20;100.00;100818.53;4994414;28;20453;-50
2022/02/25 06:24:27;;;;;;;0.20;0.10;;;;;;;3.32;99.97;100810.75;4994967;28;20823;-52
2022/02/25 06:26:54;;;;;;;0.20;0.10;;;;;;;3.34;100.00;100822.16;4994864;28;20518;-50
2022/02/25 06:29:21;;;;;;;0.20;0.20;;;;;;;3.27;100.00;100815.06;4994636;28;20886;-51
2022/02/25 06:31:47;;;;;;;0.27;0.17;;;;;;;3.28;100.00;100829.97;4994811;28;20457;-50
2022/02/25 06:34:14;;;;;;;0.20;0.10;;;;;;;3.24;99.90;100826.44;4994872;28;20507;-51
2022/02/25 06:36:41;;;;;;;0.20;0.10;;;;;;;3.23;100.00;100829.06;4993993;28;20529;-52
2022/02/25 06:39:08;;;;;;;0.20;0.10;;;;;;;3.24;100.00;100815.03;4994751;28;20951;-50
2022/02/25 06:41:35;;;;;;;0.20;0.10;;;;;;;3.38;99.85;100834.44;4992972;28;20857;-51
2022/02/25 06:44:02;;;;;;;0.20;0.10;;;;;;;3.30;100.00;100835.25;4994466;28;20457;-51
2022/02/25 06:46:29;;;;;;;0.67;0.67;;;;;;;3.24;100.00;100838.69;4994240;28;20585;-50
2022/02/25 06:48:56;;;;;;;0.20;0.10;;;;;;;3.40;100.00;100839.72;4994010;28;20485;-51
2022/02/25 06:51:22;;;;;;;0.20;0.10;;;;;;;3.25;100.00;100841.31;4994031;28;20454;-50
2022/02/25 06:53:49;;;;;;;0.20;0.10;;;;;;;3.16;100.00;100846.50;4994528;28;20449;-50
2022/02/25 06:56:17;;;;;;;0.20;0.10;;;;;;;3.28;100.00;100854.50;4994467;28;20453;-51
2022/02/25 06:58:43;;;;;;;0.20;0.10;;;;;;;3.29;100.00;100855.41;4994336;28;20474;-51
2022/02/25 07:01:10;;;;;;;0.20;0.10;;;;;;;3.45;100.00;100857.31;4994071;28;20969;-50
2022/02/25 07:03:37;;;;;;;0.20;0.10;;;;;;;3.55;99.70;100864.38;4993356;28;20827;-51
2022/02/25 07:06:04;;;;;;;0.20;0.10;;;;;;;3.60;98.67;100869.69;4993866;28;20540;-51
2022/02/25 07:08:31;;;;;;;0.20;0.10;;;;;;;3.52;99.18;100874.00;4994047;28;20530;-50
2022/02/25 07:10:57;;;;;;;0.20;0.20;;;;;;;3.58;99.30;100874.06;4993703;28;20450;-51
2022/02/25 07:13:24;;;;;;;0.20;0.10;;;;;;;3.69;99.17;100874.13;4993854;28;20456;-51
2022/02/25 07:15:53;;;;;;;0.20;0.10;;;;;;;3.77;97.88;100883.88;4993737;28;20503;-50
2022/02/25 07:18:20;;;;;;;0.20;0.10;;;;;;;3.80;97.75;100885.63;4993226;28;20897;-50
2022/02/25 07:20:47;;;;;;;0.20;0.10;;;;;;;3.90;96.94;100889.22;4993845;28;20516;-50
2022/02/25 07:23:16;;;;;;;0.20;0.10;;;;;;;3.96;97.29;100890.16;4993543;28;20453;-50
2022/02/25 07:25:43;;;;;;;0.20;0.10;;;;;;;3.94;96.79;100881.38;4993130;28;20560;-50
2022/02/25 07:28:10;;;;;;;0.20;0.13;;;;;;;3.93;97.11;100894.50;4992819;28;20527;-50
2022/02/25 07:30:38;;;;;;;0.20;0.10;;;;;;;4.05;96.77;100892.84;4992857;28;21038;-51
2022/02/25 07:33:05;;;;;;;0.20;0.10;;;;;;;4.01;97.09;100904.22;4993553;28;20485;-50
2022/02/25 07:35:32;;;;;;;0.20;0.10;;;;;;;4.13;96.22;100900.81;4993398;28;20449;-51
2022/02/25 07:38:00;;;;;;;0.20;0.10;;;;;;;4.11;96.28;100900.81;4993669;28;20481;-51
2022/02/25 07:40:27;;;;;;;0.20;0.10;;;;;;;4.23;96.34;100900.00;4990985;28;20464;-50
2022/02/25 07:42:55;;;;;;;0.20;0.10;;;;;;;4.34;95.03;100911.47;4992057;28;20516;-52
2022/02/25 07:45:24;;;;;;;0.20;0.10;;;;;;;4.26;95.97;100909.69;4992915;28;20538;-51
2022/02/25 07:47:51;;;;;;;0.20;0.10;;;;;;;4.41;95.20;100917.69;4991544;28;20943;-51
2022/02/25 07:50:18;;;;;;;0.20;0.10;;;;;;;4.43;95.25;100913.31;4991758;28;20946;-51
2022/02/25 07:52:44;;;;;;;0.20;0.10;;;;;;;4.40;94.39;100919.44;4993096;28;20811;-50
2022/02/25 07:55:12;;;;;;;0.20;0.10;;;;;;;4.45;94.54;100925.59;4993363;28;20453;-50
2022/02/25 07:57:39;;;;;;;0.20;0.10;;;;;;;4.53;93.90;100917.75;5005963;28;20464;-51
2022/02/25 08:00:24;;;;;;;0.20;0.10;;;;;;;4.64;92.86;100926.56;4993329;28;20474;-51
2022/02/25 08:02:51;;;;;;;0.20;0.10;;;;;;;4.59;93.66;100924.78;4993226;28;20824;-50
2022/02/25 08:05:18;;;;;;;0.20;0.10;;;;;;;4.60;93.50;100922.16;4993053;28;20497;-50
2022/02/25 08:07:45;;;;;;;0.20;0.10;;;;;;;4.73;93.19;100928.38;4992758;28;21043;-51
2022/02/25 08:10:12;;;;;;;0.20;0.10;;;;;;;4.68;93.25;100932.75;4992956;28;20512;-51
2022/02/25 08:12:39;;;;;;;0.20;0.10;;;;;;;4.62;92.99;100938.84;4993014;28;20457;-51
2022/02/25 08:15:07;;;;;;;0.20;0.10;;;;;;;4.77;92.91;100932.78;4992966;28;20445;-50
2022/02/25 08:17:35;;;;;;;0.20;0.10;;;;;;;5.02;91.64;100934.69;4992749;28;20481;-51
2022/02/25 08:20:03;;;;;;;0.20;0.10;;;;;;;4.88;91.88;100935.47;4992761;28;20456;-51
2022/02/25 08:22:32;;;;;;;0.20;0.10;;;;;;;4.99;91.54;100937.31;4992933;28;20449;-51
2022/02/25 08:24:58;;;;;;;0.20;0.10;;;;;;;5.19;91.90;100937.38;4992479;28;20457;-52
2022/02/25 08:27:25;;;;;;;0.20;0.10;;;;;;;5.30;91.10;100940.06;4992930;28;20480;-51
2022/02/25 08:29:52;;;;;;;0.20;0.10;;;;;;;5.42;89.75;100939.22;4992767;28;20454;-51
2022/02/25 08:32:19;;;;;;;0.20;0.10;;;;;;;5.55;89.76;100935.72;4992996;28;20461;-50
2022/02/25 08:34:46;;;;;;;0.20;0.10;;;;;;;5.59;89.35;100935.72;4992659;28;20453;-51
2022/02/25 08:37:14;;;;;;;0.20;0.10;;;;;;;5.58;89.86;100935.72;4992487;28;21067;-50
2022/02/25 08:39:41;;;;;;;0.20;0.20;;;;;;;5.51;89.24;100945.41;4994865;28;20456;-51
2022/02/25 08:42:08;;;;;;;0.20;0.10;;;;;;;5.59;90.65;100950.66;4997461;28;20449;-50
2022/02/25 08:44:36;;;;;;;0.20;0.10;;;;;;;5.84;89.37;100938.41;4996450;28;20453;-51
2022/02/25 08:47:04;;;;;;;0.20;0.10;;;;;;;5.76;89.46;100938.44;4996415;28;20500;-50
2022/02/25 08:49:31;;;;;;;0.20;0.10;;;;;;;5.97;89.43;100937.59;4996501;28;20981;-51
2022/02/25 08:51:58;;;;;;;0.20;0.10;;;;;;;5.87;89.04;100941.06;5027850;28;20780;-52
2022/02/25 08:54:30;;;;;;;0.20;0.17;;;;;;;5.91;90.52;100943.75;4996711;28;20449;-51
2022/02/25 08:56:56;;;;;;;0.20;0.10;;;;;;;5.87;88.94;100935.78;5006160;28;20476;-51
2022/02/25 08:59:23;;;;;;;0.20;0.10;;;;;;;5.93;89.80;100943.75;4999707;28;20477;-51
2022/02/25 09:01:53;;;;;;;0.20;0.10;;;;;;;6.10;88.60;100943.75;4996545;28;20453;-51
2022/02/25 09:04:20;;;;;;;0.20;0.10;;;;;;;5.99;88.99;100940.22;4996287;28;20536;-51
2022/02/25 09:06:47;;;;;;;0.20;0.20;;;;;;;6.15;88.81;100947.25;4996050;28;20551;-51
2022/02/25 09:09:14;;;;;;;0.20;0.10;;;;;;;6.18;87.68;100947.28;4996322;28;20449;-51
2022/02/25 09:11:43;;;;;;;0.20;0.10;;;;;;;6.29;88.65;100963.09;4996182;28;20449;-51
2022/02/25 09:14:10;;;;;;;0.20;0.20;;;;;;;6.36;87.94;100959.59;4996039;28;20964;-51
2022/02/25 09:16:37;;;;;;;0.20;0.10;;;;;;;6.28;87.54;100956.06;4996122;28;20460;-51
2022/02/25 09:19:04;;;;;;;0.20;0.10;;;;;;;6.15;87.03;100963.09;4995772;28;20557;-51
2022/02/25 09:21:31;;;;;;;0.20;0.10;;;;;;;6.02;87.41;100962.19;4994895;28;20450;-50
2022/02/25 09:23:58;;;;;;;0.20;0.10;;;;;;;6.29;88.06;100963.09;4995807;28;20506;-50
2022/02/25 09:26:25;;;;;;;0.20;0.10;;;;;;;6.22;87.19;100956.94;4995812;28;20525;-51
2022/02/25 09:28:51;;;;;;;0.20;0.10;;;;;;;6.27;86.54;100954.28;4995637;28;20524;-50
2022/02/25 09:31:19;;;;;;;0.40;0.37;;;;;;;5.92;86.62;100956.06;4995837;28;20567;-51
2022/02/25 09:33:48;;;;;;;0.53;0.53;;;;;;;6.13;88.01;100952.53;4996080;28;20494;-51
2022/02/25 09:36:15;;;;;;;0.20;0.10;;;;;;;6.34;85.70;100949.03;4995997;28;20489;-51
2022/02/25 09:38:42;;;;;;;0.20;0.20;;;;;;;6.33;85.95;100941.09;4995644;28;20465;-50
2022/02/25 09:41:09;;;;;;;0.20;0.10;;;;;;;6.16;86.31;100936.69;4995541;28;20862;-53
2022/02/25 09:43:36;;;;;;;0.20;0.10;;;;;;;6.15;87.13;100937.56;4995582;28;20445;-49
2022/02/25 09:46:05;;;;;;;0.20;0.10;;;;;;;6.43;87.54;100940.19;4995072;28;20552;-49
2022/02/25 09:48:33;;;;;;;0.20;0.10;;;;;;;6.71;86.75;100933.09;4994616;28;20512;-50
2022/02/25 09:51:00;;;;;;;0.20;0.10;;;;;;;6.80;84.86;100935.72;4994035;28;20453;-50
2022/02/25 09:53:27;;;;;;;2.37;1.30;;;;;;;6.84;85.20;100937.47;4994989;28;20845;-50
2022/02/25 09:55:54;;;;;;;0.20;0.10;;;;;;;6.84;84.99;100929.53;4994668;28;20452;-50
2022/02/25 09:58:21;;;;;;;0.20;0.10;;;;;;;6.63;85.16;100934.91;4995775;28;20555;-50
2022/02/25 10:00:49;;;;;;;0.20;0.10;;;;;;;6.46;85.60;100948.13;4994057;28;20504;-50
2022/02/25 10:03:18;;;;;;;0.20;0.10;;;;;;;6.50;85.82;100969.25;4995395;28;20520;-50
2022/02/25 10:05:46;;;;;;;0.20;0.13;;;;;;;6.72;86.31;100956.91;4993343;28;20508;-50
2022/02/25 10:08:19;;;;;;;0.20;0.10;;;;;;;6.91;85.60;100963.00;4994971;28;20998;-52
2022/02/25 10:10:56;;;;;;;0.20;0.10;;;;;;;6.75;84.04;100956.88;4991671;28;20449;-50
2022/02/25 10:13:26;;;;;;;0.20;0.10;;;;;;;6.61;84.60;100958.69;4994527;28;20453;-50
2022/02/25 10:16:13;;;;;;;0.20;0.20;;;;;;;6.41;84.64;100953.41;4994993;28;20542;-49
2022/02/25 10:18:40;;;;;;;0.20;0.10;;;;;;;6.38;85.52;100952.53;4994411;28;21010;-52
2022/02/25 10:21:13;;;;;;;0.20;0.20;;;;;;;6.36;85.94;100962.22;4994275;28;21017;-52
2022/02/25 10:23:44;;;;;;;0.30;0.20;;;;;;;6.38;86.55;100957.81;4994500;28;20465;-52
2022/02/25 10:26:11;;;;;;;1.03;0.93;;;;;;;6.50;87.60;100961.31;4994662;28;20516;-52
2022/02/25 10:28:40;;;;;;;0.20;0.10;;;;;;;6.54;85.18;100968.34;4990944;28;20481;-53
2022/02/25 10:31:27;;;;;;;0.20;0.20;;;;;;;6.50;85.17;100976.28;4985302;28;20457;-50
2022/02/25 10:34:03;;;;;;;0.20;0.10;;;;;;;6.74;85.46;100975.38;4994474;28;20457;-50
2022/02/25 10:36:48;;;;;;;0.20;0.10;;;;;;;6.84;85.33;100977.97;4994348;28;20955;-49
2022/02/25 10:39:24;;;;;;;0.20;0.10;;;;;;;6.62;85.70;100991.25;4985924;28;20590;-50
2022/02/25 10:42:12;;;;;;;0.20;0.20;;;;;;;6.50;85.79;100994.78;4994485;28;20457;-50
2022/02/25 10:44:45;;;;;;;0.20;0.10;;;;;;;6.33;87.03;100993.91;4993593;28;20457;-51
2022/02/25 10:47:29;;;;;;;0.20;0.10;;;;;;;6.37;87.17;101000.94;4994215;28;20983;-50
2022/02/25 10:50:05;;;;;;;0.20;0.10;;;;;;;6.58;87.95;100995.66;4992994;28;20840;-50
2022/02/25 10:52:35;;;;;;;0.20;0.10;;;;;;;6.67;87.24;100998.28;4987919;28;20457;-51
2022/02/25 10:55:11;;;;;;;0.20;0.13;;;;;;;6.67;86.60;101000.03;4990252;28;20489;-50
2022/02/25 10:57:38;;;;;;;0.20;0.10;;;;;;;6.44;86.60;100998.31;4993051;28;20465;-50
2022/02/25 11:00:09;;;;;;;0.30;0.27;;;;;;;6.50;86.32;100995.66;4994122;28;20485;-51
2022/02/25 11:02:37;;;;;;;0.20;0.10;;;;;;;6.68;86.02;100986.81;4992525;28;20469;-51
2022/02/25 11:05:19;;;;;;;0.40;0.40;;;;;;;6.50;85.96;101002.69;4993851;28;20457;-51
2022/02/25 11:07:51;;;;;;;0.53;0.53;;;;;;;6.58;85.61;100998.31;4993494;28;21092;-50
2022/02/25 11:10:20;;;;;;;0.20;0.10;;;;;;;6.66;87.59;101000.91;4994224;28;20504;-50
2022/02/25 11:12:49;;;;;;;0.30;0.20;;;;;;;6.48;86.84;100999.19;4980966;28;20449;-52
2022/02/25 11:15:22;;;;;;;0.30;0.20;;;;;;;6.54;87.47;101015.00;4993793;28;20481;-51
2022/02/25 11:17:49;;;;;;;0.20;0.20;;;;;;;6.41;87.72;101006.22;4993838;28;20493;-50
2022/02/25 11:20:37;;;;;;;0.20;0.10;;;;;;;6.61;87.46;101000.94;4993729;28;20887;-50
2022/02/25 11:23:06;;;;;;;0.20;0.10;;;;;;;6.61;87.88;100997.41;4993880;28;20868;-50
2022/02/25 11:25:35;;;;;;;0.20;0.10;;;;;;;6.67;87.75;100990.34;4997222;28;20446;-50
2022/02/25 11:28:02;;;;;;;0.20;0.10;;;;;;;6.73;87.24;100985.06;4993709;28;20469;-50
2022/02/25 11:30:42;;;;;;;0.20;0.20;;;;;;;6.65;87.27;100992.13;4993538;28;20504;-50
2022/02/25 11:33:16;;;;;;;0.20;0.10;;;;;;;6.67;85.70;101006.19;4993588;28;20935;-50
2022/02/25 11:35:54;;;;;;;0.20;0.10;;;;;;;6.78;87.31;101000.91;4993666;28;20445;-50
2022/02/25 11:38:45;;;;;;;0.20;0.10;;;;;;;6.98;87.02;101008.78;4993343;28;20465;-51
2022/02/25 11:41:13;;;;;;;0.20;0.20;;;;;;;6.88;86.79;101009.72;4993280;28;20449;-51
2022/02/25 11:43:47;;;;;;;0.20;0.10;;;;;;;6.91;85.90;101013.22;4993079;28;20506;-50
2022/02/25 11:46:27;;;;;;;0.20;0.10;;;;;;;6.72;86.07;101016.78;4993276;28;20567;-50